sensor_id;sensor_type;location;lat;lon;timestamp;P1;durP1;ratioP1;P2;durP2;ratioP2
43837;SDS011;65998;46.256;7.534;2024-02-28T00:02:11;6.90;;;3.25;;
43837;SDS011;65998;46.256;7.534;2024-02-28T00:04:39;8.20;;;3.70;;
43837;SDS011;65998;46.256;7.534;2024-02-28T00:07:06;10.00;;;3.60;;
43837;SDS011;65998;46.256;7.534;2024-02-28T00:09:31;7.60;;;3.78;;
43837;SDS011;65998;46.256;7.534;2024-02-28T00:11:57;10.82;;;4.18;;
43837;SDS011;65998;46.256;7.534;2024-02-28T00:14:23;10.53;;;4.80;;
43837;SDS011;65998;46.256;7.534;2024-02-28T00:16:49;15.55;;;4.72;;
43837;SDS011;65998;46.256;7.534;2024-02-28T00:19:15;10.97;;;4.77;;
43837;SDS011;65998;46.256;7.534;2024-02-28T00:21:41;11.00;;;4.55;;
43837;SDS011;65998;46.256;7.534;2024-02-28T00:24:07;11.77;;;5.05;;
43837;SDS011;65998;46.256;7.534;2024-02-28T00:26:33;14.52;;;5.55;;
43837;SDS011;65998;46.256;7.534;2024-02-28T00:28:59;14.10;;;4.73;;
43837;SDS011;65998;46.256;7.534;2024-02-28T00:31:25;11.63;;;4.45;;
43837;SDS011;65998;46.256;7.534;2024-02-28T00:33:50;13.13;;;5.00;;
43837;SDS011;65998;46.256;7.534;2024-02-28T00:36:16;16.25;;;5.45;;
43837;SDS011;65998;46.256;7.534;2024-02-28T00:38:42;15.13;;;6.17;;
43837;SDS011;65998;46.256;7.534;2024-02-28T00:41:08;16.30;;;6.05;;
43837;SDS011;65998;46.256;7.534;2024-02-28T00:43:34;20.13;;;6.40;;
43837;SDS011;65998;46.256;7.534;2024-02-28T00:46:00;14.30;;;5.80;;
43837;SDS011;65998;46.256;7.534;2024-02-28T00:48:26;11.55;;;4.70;;
43837;SDS011;65998;46.256;7.534;2024-02-28T00:50:52;26.63;;;8.93;;
43837;SDS011;65998;46.256;7.534;2024-02-28T00:53:19;17.45;;;6.85;;
43837;SDS011;65998;46.256;7.534;2024-02-28T00:55:46;12.48;;;5.25;;
43837;SDS011;65998;46.256;7.534;2024-02-28T00:58:12;11.13;;;4.38;;
43837;SDS011;65998;46.256;7.534;2024-02-28T01:00:38;14.30;;;5.38;;
43837;SDS011;65998;46.256;7.534;2024-02-28T01:03:04;13.13;;;4.68;;
43837;SDS011;65998;46.256;7.534;2024-02-28T01:05:30;10.73;;;4.83;;
43837;SDS011;65998;46.256;7.534;2024-02-28T01:07:56;12.73;;;4.55;;
43837;SDS011;65998;46.256;7.534;2024-02-28T01:10:22;9.90;;;4.63;;
43837;SDS011;65998;46.256;7.534;2024-02-28T01:12:48;12.43;;;5.25;;
43837;SDS011;65998;46.256;7.534;2024-02-28T01:15:14;10.98;;;4.72;;
43837;SDS011;65998;46.256;7.534;2024-02-28T01:17:40;11.00;;;5.22;;
43837;SDS011;65998;46.256;7.534;2024-02-28T01:20:06;11.57;;;5.05;;
43837;SDS011;65998;46.256;7.534;2024-02-28T01:22:32;15.00;;;5.90;;
43837;SDS011;65998;46.256;7.534;2024-02-28T01:24:58;12.25;;;5.40;;
43837;SDS011;65998;46.256;7.534;2024-02-28T01:27:24;21.50;;;7.85;;
43837;SDS011;65998;46.256;7.534;2024-02-28T01:29:50;25.37;;;10.07;;
43837;SDS011;65998;46.256;7.534;2024-02-28T01:32:15;11.52;;;5.25;;
43837;SDS011;65998;46.256;7.534;2024-02-28T01:34:42;11.55;;;5.03;;
43837;SDS011;65998;46.256;7.534;2024-02-28T01:37:07;13.07;;;4.67;;
43837;SDS011;65998;46.256;7.534;2024-02-28T01:39:33;9.07;;;4.03;;
43837;SDS011;65998;46.256;7.534;2024-02-28T01:41:59;10.97;;;4.57;;
43837;SDS011;65998;46.256;7.534;2024-02-28T01:44:24;11.48;;;4.80;;
43837;SDS011;65998;46.256;7.534;2024-02-28T01:46:50;9.97;;;4.70;;
43837;SDS011;65998;46.256;7.534;2024-02-28T01:49:17;11.30;;;4.70;;
43837;SDS011;65998;46.256;7.534;2024-02-28T01:51:43;11.13;;;4.45;;
43837;SDS011;65998;46.256;7.534;2024-02-28T01:54:10;12.35;;;4.60;;
43837;SDS011;65998;46.256;7.534;2024-02-28T01:56:36;10.83;;;3.93;;
43837;SDS011;65998;46.256;7.534;2024-02-28T01:59:03;8.93;;;3.20;;
43837;SDS011;65998;46.256;7.534;2024-02-28T02:01:29;8.52;;;3.55;;
43837;SDS011;65998;46.256;7.534;2024-02-28T02:03:55;10.07;;;3.63;;
43837;SDS011;65998;46.256;7.534;2024-02-28T02:06:21;9.07;;;3.60;;
43837;SDS011;65998;46.256;7.534;2024-02-28T02:08:47;8.98;;;3.75;;
43837;SDS011;65998;46.256;7.534;2024-02-28T02:11:17;7.00;;;3.28;;
43837;SDS011;65998;46.256;7.534;2024-02-28T02:13:49;7.57;;;3.50;;
43837;SDS011;65998;46.256;7.534;2024-02-28T02:16:16;8.20;;;3.22;;
43837;SDS011;65998;46.256;7.534;2024-02-28T02:18:43;8.25;;;3.35;;
43837;SDS011;65998;46.256;7.534;2024-02-28T02:21:09;9.68;;;3.33;;
43837;SDS011;65998;46.256;7.534;2024-02-28T02:23:38;7.70;;;3.23;;
43837;SDS011;65998;46.256;7.534;2024-02-28T02:26:04;7.85;;;3.30;;
43837;SDS011;65998;46.256;7.534;2024-02-28T02:28:29;10.38;;;3.58;;
43837;SDS011;65998;46.256;7.534;2024-02-28T02:30:55;9.63;;;3.93;;
43837;SDS011;65998;46.256;7.534;2024-02-28T02:33:21;10.27;;;4.30;;
43837;SDS011;65998;46.256;7.534;2024-02-28T02:35:47;9.87;;;3.90;;
43837;SDS011;65998;46.256;7.534;2024-02-28T02:38:13;9.65;;;4.32;;
43837;SDS011;65998;46.256;7.534;2024-02-28T02:40:39;9.40;;;4.18;;
43837;SDS011;65998;46.256;7.534;2024-02-28T02:43:05;11.07;;;3.90;;
43837;SDS011;65998;46.256;7.534;2024-02-28T02:45:30;11.00;;;4.80;;
43837;SDS011;65998;46.256;7.534;2024-02-28T02:47:56;10.15;;;4.15;;
43837;SDS011;65998;46.256;7.534;2024-02-28T02:50:22;11.75;;;4.30;;
43837;SDS011;65998;46.256;7.534;2024-02-28T02:52:48;9.55;;;4.35;;
43837;SDS011;65998;46.256;7.534;2024-02-28T02:55:14;9.47;;;4.07;;
43837;SDS011;65998;46.256;7.534;2024-02-28T02:57:40;10.50;;;4.75;;
43837;SDS011;65998;46.256;7.534;2024-02-28T03:00:08;11.57;;;4.30;;
43837;SDS011;65998;46.256;7.534;2024-02-28T03:02:34;10.77;;;4.63;;
43837;SDS011;65998;46.256;7.534;2024-02-28T03:05:00;10.20;;;4.05;;
43837;SDS011;65998;46.256;7.534;2024-02-28T03:07:26;9.70;;;3.93;;
43837;SDS011;65998;46.256;7.534;2024-02-28T03:09:52;10.15;;;4.05;;
43837;SDS011;65998;46.256;7.534;2024-02-28T03:12:18;7.75;;;4.10;;
43837;SDS011;65998;46.256;7.534;2024-02-28T03:14:43;9.80;;;4.47;;
43837;SDS011;65998;46.256;7.534;2024-02-28T03:17:09;9.63;;;4.10;;
43837;SDS011;65998;46.256;7.534;2024-02-28T03:19:35;10.80;;;4.73;;
43837;SDS011;65998;46.256;7.534;2024-02-28T03:22:01;10.55;;;4.38;;
43837;SDS011;65998;46.256;7.534;2024-02-28T03:24:26;9.70;;;3.90;;
43837;SDS011;65998;46.256;7.534;2024-02-28T03:26:52;8.07;;;4.03;;
43837;SDS011;65998;46.256;7.534;2024-02-28T03:29:18;14.57;;;4.50;;
43837;SDS011;65998;46.256;7.534;2024-02-28T03:31:44;11.00;;;4.77;;
43837;SDS011;65998;46.256;7.534;2024-02-28T03:34:10;11.15;;;4.82;;
43837;SDS011;65998;46.256;7.534;2024-02-28T03:36:36;12.03;;;4.80;;
43837;SDS011;65998;46.256;7.534;2024-02-28T03:39:01;11.52;;;4.75;;
43837;SDS011;65998;46.256;7.534;2024-02-28T03:41:27;12.15;;;4.93;;
43837;SDS011;65998;46.256;7.534;2024-02-28T03:43:53;11.40;;;4.63;;
43837;SDS011;65998;46.256;7.534;2024-02-28T03:46:19;12.48;;;5.15;;
43837;SDS011;65998;46.256;7.534;2024-02-28T03:48:44;13.50;;;4.87;;
43837;SDS011;65998;46.256;7.534;2024-02-28T03:51:10;9.73;;;4.45;;
43837;SDS011;65998;46.256;7.534;2024-02-28T03:53:36;11.03;;;5.17;;
43837;SDS011;65998;46.256;7.534;2024-02-28T03:56:02;12.48;;;4.30;;
43837;SDS011;65998;46.256;7.534;2024-02-28T03:58:28;11.25;;;4.80;;
43837;SDS011;65998;46.256;7.534;2024-02-28T04:00:54;10.75;;;4.63;;
43837;SDS011;65998;46.256;7.534;2024-02-28T04:03:20;7.72;;;3.63;;
43837;SDS011;65998;46.256;7.534;2024-02-28T04:05:46;11.60;;;4.35;;
43837;SDS011;65998;46.256;7.534;2024-02-28T04:08:11;8.70;;;3.33;;
43837;SDS011;65998;46.256;7.534;2024-02-28T04:10:37;9.63;;;4.13;;
43837;SDS011;65998;46.256;7.534;2024-02-28T04:13:03;8.73;;;4.07;;
43837;SDS011;65998;46.256;7.534;2024-02-28T04:15:30;8.40;;;3.40;;
43837;SDS011;65998;46.256;7.534;2024-02-28T04:17:56;9.30;;;3.60;;
43837;SDS011;65998;46.256;7.534;2024-02-28T04:20:22;10.10;;;3.50;;
43837;SDS011;65998;46.256;7.534;2024-02-28T04:22:47;8.57;;;3.40;;
43837;SDS011;65998;46.256;7.534;2024-02-28T04:25:13;8.40;;;3.65;;
43837;SDS011;65998;46.256;7.534;2024-02-28T04:27:39;7.60;;;2.90;;
43837;SDS011;65998;46.256;7.534;2024-02-28T04:30:05;7.13;;;2.92;;
43837;SDS011;65998;46.256;7.534;2024-02-28T04:32:31;6.03;;;2.30;;
43837;SDS011;65998;46.256;7.534;2024-02-28T04:34:57;8.15;;;3.15;;
43837;SDS011;65998;46.256;7.534;2024-02-28T04:37:23;5.53;;;2.50;;
43837;SDS011;65998;46.256;7.534;2024-02-28T04:39:49;7.03;;;2.72;;
43837;SDS011;65998;46.256;7.534;2024-02-28T04:42:15;6.30;;;2.57;;
43837;SDS011;65998;46.256;7.534;2024-02-28T04:44:42;6.72;;;2.53;;
43837;SDS011;65998;46.256;7.534;2024-02-28T04:47:07;10.32;;;2.50;;
43837;SDS011;65998;46.256;7.534;2024-02-28T04:49:36;5.68;;;2.10;;
43837;SDS011;65998;46.256;7.534;2024-02-28T04:52:04;7.20;;;2.58;;
43837;SDS011;65998;46.256;7.534;2024-02-28T04:54:31;7.55;;;2.65;;
43837;SDS011;65998;46.256;7.534;2024-02-28T04:56:57;7.40;;;3.33;;
43837;SDS011;65998;46.256;7.534;2024-02-28T04:59:23;5.93;;;2.22;;
43837;SDS011;65998;46.256;7.534;2024-02-28T05:01:48;6.38;;;2.33;;
43837;SDS011;65998;46.256;7.534;2024-02-28T05:04:14;6.95;;;2.58;;
43837;SDS011;65998;46.256;7.534;2024-02-28T05:06:40;6.47;;;2.53;;
43837;SDS011;65998;46.256;7.534;2024-02-28T05:09:06;4.25;;;1.98;;
43837;SDS011;65998;46.256;7.534;2024-02-28T05:11:32;5.77;;;2.20;;
43837;SDS011;65998;46.256;7.534;2024-02-28T05:13:58;4.40;;;2.20;;
43837;SDS011;65998;46.256;7.534;2024-02-28T05:16:23;5.97;;;2.20;;
43837;SDS011;65998;46.256;7.534;2024-02-28T05:18:49;6.22;;;3.08;;
43837;SDS011;65998;46.256;7.534;2024-02-28T05:21:15;8.10;;;2.60;;
43837;SDS011;65998;46.256;7.534;2024-02-28T05:23:41;6.35;;;2.65;;
43837;SDS011;65998;46.256;7.534;2024-02-28T05:26:07;6.40;;;2.20;;
43837;SDS011;65998;46.256;7.534;2024-02-28T05:28:33;6.03;;;1.87;;
43837;SDS011;65998;46.256;7.534;2024-02-28T05:30:59;5.00;;;2.00;;
43837;SDS011;65998;46.256;7.534;2024-02-28T05:33:26;6.78;;;2.72;;
43837;SDS011;65998;46.256;7.534;2024-02-28T05:35:52;8.23;;;3.83;;
43837;SDS011;65998;46.256;7.534;2024-02-28T05:38:18;9.43;;;4.50;;
43837;SDS011;65998;46.256;7.534;2024-02-28T05:40:43;8.23;;;3.03;;
43837;SDS011;65998;46.256;7.534;2024-02-28T05:43:10;6.53;;;2.40;;
43837;SDS011;65998;46.256;7.534;2024-02-28T05:45:35;7.73;;;3.40;;
43837;SDS011;65998;46.256;7.534;2024-02-28T05:48:01;13.20;;;5.47;;
43837;SDS011;65998;46.256;7.534;2024-02-28T05:50:27;10.37;;;5.10;;
43837;SDS011;65998;46.256;7.534;2024-02-28T05:52:53;9.50;;;3.67;;
43837;SDS011;65998;46.256;7.534;2024-02-28T05:55:18;10.13;;;4.10;;
43837;SDS011;65998;46.256;7.534;2024-02-28T05:57:44;8.43;;;3.25;;
43837;SDS011;65998;46.256;7.534;2024-02-28T06:00:10;9.05;;;4.15;;
43837;SDS011;65998;46.256;7.534;2024-02-28T06:02:37;11.02;;;3.92;;
43837;SDS011;65998;46.256;7.534;2024-02-28T06:05:03;8.73;;;3.13;;
43837;SDS011;65998;46.256;7.534;2024-02-28T06:07:30;10.25;;;4.63;;
43837;SDS011;65998;46.256;7.534;2024-02-28T06:09:56;8.73;;;3.90;;
43837;SDS011;65998;46.256;7.534;2024-02-28T06:12:21;6.13;;;2.65;;
43837;SDS011;65998;46.256;7.534;2024-02-28T06:14:47;5.17;;;2.33;;
43837;SDS011;65998;46.256;7.534;2024-02-28T06:17:13;6.40;;;2.72;;
43837;SDS011;65998;46.256;7.534;2024-02-28T06:19:39;7.07;;;2.67;;
43837;SDS011;65998;46.256;7.534;2024-02-28T06:22:05;6.43;;;2.78;;
43837;SDS011;65998;46.256;7.534;2024-02-28T06:24:33;8.07;;;3.40;;
43837;SDS011;65998;46.256;7.534;2024-02-28T06:27:00;8.52;;;3.67;;
43837;SDS011;65998;46.256;7.534;2024-02-28T06:29:25;17.10;;;6.53;;
43837;SDS011;65998;46.256;7.534;2024-02-28T06:31:51;14.43;;;5.57;;
43837;SDS011;65998;46.256;7.534;2024-02-28T06:34:17;12.68;;;5.15;;
43837;SDS011;65998;46.256;7.534;2024-02-28T06:36:44;11.02;;;4.45;;
43837;SDS011;65998;46.256;7.534;2024-02-28T06:39:09;9.13;;;3.60;;
43837;SDS011;65998;46.256;7.534;2024-02-28T06:41:35;12.00;;;4.60;;
43837;SDS011;65998;46.256;7.534;2024-02-28T06:44:04;9.90;;;3.77;;
43837;SDS011;65998;46.256;7.534;2024-02-28T06:46:30;10.50;;;3.70;;
43837;SDS011;65998;46.256;7.534;2024-02-28T06:48:56;9.63;;;3.70;;
43837;SDS011;65998;46.256;7.534;2024-02-28T06:51:22;10.07;;;4.03;;
43837;SDS011;65998;46.256;7.534;2024-02-28T06:53:47;11.00;;;4.05;;
43837;SDS011;65998;46.256;7.534;2024-02-28T06:56:13;9.00;;;3.70;;
43837;SDS011;65998;46.256;7.534;2024-02-28T06:58:39;11.13;;;4.53;;
43837;SDS011;65998;46.256;7.534;2024-02-28T07:01:05;11.32;;;4.07;;
43837;SDS011;65998;46.256;7.534;2024-02-28T07:03:31;8.67;;;3.67;;
43837;SDS011;65998;46.256;7.534;2024-02-28T07:05:56;11.70;;;3.80;;
43837;SDS011;65998;46.256;7.534;2024-02-28T07:08:22;8.80;;;4.17;;
43837;SDS011;65998;46.256;7.534;2024-02-28T07:10:48;13.00;;;4.32;;
43837;SDS011;65998;46.256;7.534;2024-02-28T07:13:14;10.83;;;4.27;;
43837;SDS011;65998;46.256;7.534;2024-02-28T07:15:40;10.88;;;3.30;;
43837;SDS011;65998;46.256;7.534;2024-02-28T07:18:05;8.83;;;3.37;;
43837;SDS011;65998;46.256;7.534;2024-02-28T07:20:31;7.18;;;3.08;;
43837;SDS011;65998;46.256;7.534;2024-02-28T07:22:57;6.07;;;3.05;;
43837;SDS011;65998;46.256;7.534;2024-02-28T07:25:23;8.63;;;3.50;;
43837;SDS011;65998;46.256;7.534;2024-02-28T07:27:49;8.48;;;3.28;;
43837;SDS011;65998;46.256;7.534;2024-02-28T07:30:15;9.98;;;3.60;;
43837;SDS011;65998;46.256;7.534;2024-02-28T07:32:41;10.10;;;3.60;;
43837;SDS011;65998;46.256;7.534;2024-02-28T07:35:07;6.75;;;2.55;;
43837;SDS011;65998;46.256;7.534;2024-02-28T07:37:32;8.18;;;3.33;;
43837;SDS011;65998;46.256;7.534;2024-02-28T07:39:59;7.97;;;3.23;;
43837;SDS011;65998;46.256;7.534;2024-02-28T07:42:24;9.88;;;3.80;;
43837;SDS011;65998;46.256;7.534;2024-02-28T07:44:50;16.30;;;5.53;;
43837;SDS011;65998;46.256;7.534;2024-02-28T07:47:16;14.40;;;5.00;;
43837;SDS011;65998;46.256;7.534;2024-02-28T07:49:43;12.07;;;4.78;;
43837;SDS011;65998;46.256;7.534;2024-02-28T07:52:08;13.00;;;5.10;;
43837;SDS011;65998;46.256;7.534;2024-02-28T07:54:34;19.40;;;7.32;;
43837;SDS011;65998;46.256;7.534;2024-02-28T07:57:00;12.60;;;5.25;;
43837;SDS011;65998;46.256;7.534;2024-02-28T07:59:26;9.70;;;4.20;;
43837;SDS011;65998;46.256;7.534;2024-02-28T08:01:51;9.65;;;4.28;;
43837;SDS011;65998;46.256;7.534;2024-02-28T08:04:17;10.60;;;4.27;;
43837;SDS011;65998;46.256;7.534;2024-02-28T08:06:43;8.52;;;3.75;;
43837;SDS011;65998;46.256;7.534;2024-02-28T08:09:09;7.65;;;3.13;;
43837;SDS011;65998;46.256;7.534;2024-02-28T08:11:35;7.73;;;2.73;;
43837;SDS011;65998;46.256;7.534;2024-02-28T08:14:01;6.45;;;2.80;;
43837;SDS011;65998;46.256;7.534;2024-02-28T08:16:26;4.90;;;2.17;;
43837;SDS011;65998;46.256;7.534;2024-02-28T08:18:52;7.35;;;2.88;;
43837;SDS011;65998;46.256;7.534;2024-02-28T08:21:18;6.40;;;2.57;;
43837;SDS011;65998;46.256;7.534;2024-02-28T08:23:44;8.60;;;2.75;;
43837;SDS011;65998;46.256;7.534;2024-02-28T08:26:10;8.07;;;3.28;;
43837;SDS011;65998;46.256;7.534;2024-02-28T08:28:36;7.83;;;3.30;;
43837;SDS011;65998;46.256;7.534;2024-02-28T08:31:02;6.75;;;3.10;;
43837;SDS011;65998;46.256;7.534;2024-02-28T08:33:28;8.05;;;3.45;;
43837;SDS011;65998;46.256;7.534;2024-02-28T08:35:54;8.37;;;3.57;;
43837;SDS011;65998;46.256;7.534;2024-02-28T08:38:20;10.90;;;3.83;;
43837;SDS011;65998;46.256;7.534;2024-02-28T08:40:46;8.95;;;3.75;;
43837;SDS011;65998;46.256;7.534;2024-02-28T08:43:12;9.73;;;4.15;;
43837;SDS011;65998;46.256;7.534;2024-02-28T08:45:37;9.60;;;3.90;;
43837;SDS011;65998;46.256;7.534;2024-02-28T08:48:03;10.30;;;5.10;;
43837;SDS011;65998;46.256;7.534;2024-02-28T08:50:29;11.43;;;5.03;;
43837;SDS011;65998;46.256;7.534;2024-02-28T08:52:55;12.35;;;4.50;;
43837;SDS011;65998;46.256;7.534;2024-02-28T08:55:21;10.40;;;4.20;;
43837;SDS011;65998;46.256;7.534;2024-02-28T08:57:47;12.00;;;4.60;;
43837;SDS011;65998;46.256;7.534;2024-02-28T09:00:14;9.50;;;4.05;;
43837;SDS011;65998;46.256;7.534;2024-02-28T09:02:40;12.10;;;4.97;;
43837;SDS011;65998;46.256;7.534;2024-02-28T09:05:06;7.20;;;2.90;;
43837;SDS011;65998;46.256;7.534;2024-02-28T09:07:33;9.02;;;2.75;;
43837;SDS011;65998;46.256;7.534;2024-02-28T09:09:58;8.47;;;3.03;;
43837;SDS011;65998;46.256;7.534;2024-02-28T09:12:24;7.25;;;3.33;;
43837;SDS011;65998;46.256;7.534;2024-02-28T09:14:50;7.50;;;3.15;;
43837;SDS011;65998;46.256;7.534;2024-02-28T09:17:16;6.47;;;2.87;;
43837;SDS011;65998;46.256;7.534;2024-02-28T09:19:41;9.57;;;3.60;;
43837;SDS011;65998;46.256;7.534;2024-02-28T09:22:07;9.13;;;3.43;;
43837;SDS011;65998;46.256;7.534;2024-02-28T09:24:33;8.63;;;3.70;;
43837;SDS011;65998;46.256;7.534;2024-02-28T09:26:59;8.52;;;3.53;;
43837;SDS011;65998;46.256;7.534;2024-02-28T09:29:24;8.63;;;3.78;;
43837;SDS011;65998;46.256;7.534;2024-02-28T09:31:50;9.85;;;4.05;;
43837;SDS011;65998;46.256;7.534;2024-02-28T09:34:16;9.30;;;4.83;;
43837;SDS011;65998;46.256;7.534;2024-02-28T09:36:42;11.52;;;4.97;;
43837;SDS011;65998;46.256;7.534;2024-02-28T09:39:08;6.68;;;3.47;;
43837;SDS011;65998;46.256;7.534;2024-02-28T09:41:34;9.88;;;3.50;;
43837;SDS011;65998;46.256;7.534;2024-02-28T09:44:00;10.73;;;3.60;;
43837;SDS011;65998;46.256;7.534;2024-02-28T09:46:27;8.20;;;3.95;;
43837;SDS011;65998;46.256;7.534;2024-02-28T09:48:54;8.23;;;3.50;;
43837;SDS011;65998;46.256;7.534;2024-02-28T09:51:21;13.13;;;5.80;;
43837;SDS011;65998;46.256;7.534;2024-02-28T09:53:47;12.30;;;5.05;;
43837;SDS011;65998;46.256;7.534;2024-02-28T09:56:13;10.30;;;4.60;;
43837;SDS011;65998;46.256;7.534;2024-02-28T09:58:41;11.40;;;5.10;;
43837;SDS011;65998;46.256;7.534;2024-02-28T10:01:07;11.57;;;5.00;;
43837;SDS011;65998;46.256;7.534;2024-02-28T10:03:36;11.48;;;5.05;;
43837;SDS011;65998;46.256;7.534;2024-02-28T10:06:03;10.20;;;5.03;;
43837;SDS011;65998;46.256;7.534;2024-02-28T10:08:29;11.17;;;4.70;;
43837;SDS011;65998;46.256;7.534;2024-02-28T10:10:55;10.90;;;4.57;;
43837;SDS011;65998;46.256;7.534;2024-02-28T10:13:20;14.63;;;5.87;;
43837;SDS011;65998;46.256;7.534;2024-02-28T10:15:47;12.80;;;4.78;;
43837;SDS011;65998;46.256;7.534;2024-02-28T10:18:14;32.38;;;10.98;;
43837;SDS011;65998;46.256;7.534;2024-02-28T10:20:40;15.57;;;6.90;;
43837;SDS011;65998;46.256;7.534;2024-02-28T10:23:06;12.70;;;5.17;;
43837;SDS011;65998;46.256;7.534;2024-02-28T10:25:32;11.23;;;4.65;;
43837;SDS011;65998;46.256;7.534;2024-02-28T10:28:01;10.23;;;4.63;;
43837;SDS011;65998;46.256;7.534;2024-02-28T10:30:27;9.90;;;4.35;;
43837;SDS011;65998;46.256;7.534;2024-02-28T10:32:53;9.57;;;4.10;;
43837;SDS011;65998;46.256;7.534;2024-02-28T10:35:19;9.82;;;4.63;;
43837;SDS011;65998;46.256;7.534;2024-02-28T10:37:46;10.82;;;4.78;;
43837;SDS011;65998;46.256;7.534;2024-02-28T10:40:13;11.35;;;4.45;;
43837;SDS011;65998;46.256;7.534;2024-02-28T10:42:41;9.90;;;4.95;;
43837;SDS011;65998;46.256;7.534;2024-02-28T10:45:09;10.20;;;4.65;;
43837;SDS011;65998;46.256;7.534;2024-02-28T10:47:35;11.68;;;4.82;;
43837;SDS011;65998;46.256;7.534;2024-02-28T10:50:06;10.15;;;4.95;;
43837;SDS011;65998;46.256;7.534;2024-02-28T10:52:38;12.13;;;5.28;;
43837;SDS011;65998;46.256;7.534;2024-02-28T10:55:08;9.77;;;4.60;;
43837;SDS011;65998;46.256;7.534;2024-02-28T10:57:36;11.27;;;4.63;;
43837;SDS011;65998;46.256;7.534;2024-02-28T11:00:03;10.65;;;4.88;;
43837;SDS011;65998;46.256;7.534;2024-02-28T11:02:31;10.88;;;5.00;;
43837;SDS011;65998;46.256;7.534;2024-02-28T11:04:58;12.50;;;5.40;;
43837;SDS011;65998;46.256;7.534;2024-02-28T11:07:24;10.48;;;5.10;;
43837;SDS011;65998;46.256;7.534;2024-02-28T11:09:55;11.30;;;4.85;;
43837;SDS011;65998;46.256;7.534;2024-02-28T11:12:28;11.53;;;4.90;;
43837;SDS011;65998;46.256;7.534;2024-02-28T11:14:56;9.55;;;4.35;;
43837;SDS011;65998;46.256;7.534;2024-02-28T11:17:31;10.68;;;5.07;;
43837;SDS011;65998;46.256;7.534;2024-02-28T11:19:58;11.52;;;4.85;;
43837;SDS011;65998;46.256;7.534;2024-02-28T11:22:28;10.25;;;4.40;;
43837;SDS011;65998;46.256;7.534;2024-02-28T11:24:54;8.60;;;4.00;;
43837;SDS011;65998;46.256;7.534;2024-02-28T11:27:21;9.15;;;4.55;;
43837;SDS011;65998;46.256;7.534;2024-02-28T11:29:48;8.63;;;4.07;;
43837;SDS011;65998;46.256;7.534;2024-02-28T11:32:13;7.75;;;4.03;;
43837;SDS011;65998;46.256;7.534;2024-02-28T11:34:39;11.50;;;4.60;;
43837;SDS011;65998;46.256;7.534;2024-02-28T11:37:05;9.60;;;4.07;;
43837;SDS011;65998;46.256;7.534;2024-02-28T11:39:31;9.90;;;4.45;;
43837;SDS011;65998;46.256;7.534;2024-02-28T11:42:12;8.47;;;4.10;;
43837;SDS011;65998;46.256;7.534;2024-02-28T11:44:39;8.25;;;3.67;;
43837;SDS011;65998;46.256;7.534;2024-02-28T11:47:08;9.57;;;4.57;;
43837;SDS011;65998;46.256;7.534;2024-02-28T11:49:34;8.57;;;3.88;;
43837;SDS011;65998;46.256;7.534;2024-02-28T11:52:00;9.18;;;4.40;;
43837;SDS011;65998;46.256;7.534;2024-02-28T11:54:26;9.43;;;4.57;;
43837;SDS011;65998;46.256;7.534;2024-02-28T11:56:52;9.77;;;4.50;;
43837;SDS011;65998;46.256;7.534;2024-02-28T11:59:18;8.00;;;4.45;;
43837;SDS011;65998;46.256;7.534;2024-02-28T12:01:44;6.77;;;3.63;;
43837;SDS011;65998;46.256;7.534;2024-02-28T12:04:10;9.45;;;4.40;;
43837;SDS011;65998;46.256;7.534;2024-02-28T12:06:36;9.77;;;4.55;;
43837;SDS011;65998;46.256;7.534;2024-02-28T12:09:03;9.90;;;4.88;;
43837;SDS011;65998;46.256;7.534;2024-02-28T12:11:33;8.63;;;4.43;;
43837;SDS011;65998;46.256;7.534;2024-02-28T12:13:59;6.20;;;3.00;;
43837;SDS011;65998;46.256;7.534;2024-02-28T12:16:25;6.50;;;3.10;;
43837;SDS011;65998;46.256;7.534;2024-02-28T12:18:51;9.18;;;4.10;;
43837;SDS011;65998;46.256;7.534;2024-02-28T12:21:18;7.35;;;3.58;;
43837;SDS011;65998;46.256;7.534;2024-02-28T12:23:45;7.95;;;3.90;;
43837;SDS011;65998;46.256;7.534;2024-02-28T12:26:11;8.95;;;4.35;;
43837;SDS011;65998;46.256;7.534;2024-02-28T12:28:37;9.23;;;4.22;;
43837;SDS011;65998;46.256;7.534;2024-02-28T12:31:03;8.68;;;4.25;;
43837;SDS011;65998;46.256;7.534;2024-02-28T12:33:29;9.67;;;4.70;;
43837;SDS011;65998;46.256;7.534;2024-02-28T12:35:54;8.05;;;4.13;;
43837;SDS011;65998;46.256;7.534;2024-02-28T12:38:20;7.68;;;3.55;;
43837;SDS011;65998;46.256;7.534;2024-02-28T12:40:46;5.07;;;2.92;;
43837;SDS011;65998;46.256;7.534;2024-02-28T12:43:12;8.25;;;3.90;;
43837;SDS011;65998;46.256;7.534;2024-02-28T12:45:38;8.07;;;4.20;;
43837;SDS011;65998;46.256;7.534;2024-02-28T12:48:04;6.53;;;3.33;;
43837;SDS011;65998;46.256;7.534;2024-02-28T12:50:29;7.50;;;3.03;;
43837;SDS011;65998;46.256;7.534;2024-02-28T12:52:55;6.87;;;3.07;;
43837;SDS011;65998;46.256;7.534;2024-02-28T12:55:21;7.40;;;3.30;;
43837;SDS011;65998;46.256;7.534;2024-02-28T12:57:47;8.30;;;3.55;;
43837;SDS011;65998;46.256;7.534;2024-02-28T13:00:13;8.73;;;3.30;;
43837;SDS011;65998;46.256;7.534;2024-02-28T13:02:39;7.63;;;3.10;;
43837;SDS011;65998;46.256;7.534;2024-02-28T13:05:05;9.57;;;3.93;;
43837;SDS011;65998;46.256;7.534;2024-02-28T13:07:31;6.88;;;3.17;;
43837;SDS011;65998;46.256;7.534;2024-02-28T13:09:57;9.10;;;3.80;;
43837;SDS011;65998;46.256;7.534;2024-02-28T13:12:22;6.30;;;3.30;;
43837;SDS011;65998;46.256;7.534;2024-02-28T13:14:48;8.13;;;3.53;;
43837;SDS011;65998;46.256;7.534;2024-02-28T13:17:14;7.17;;;3.60;;
43837;SDS011;65998;46.256;7.534;2024-02-28T13:19:40;7.93;;;3.72;;
43837;SDS011;65998;46.256;7.534;2024-02-28T13:22:06;6.70;;;3.30;;
43837;SDS011;65998;46.256;7.534;2024-02-28T13:24:31;7.40;;;3.60;;
43837;SDS011;65998;46.256;7.534;2024-02-28T13:26:57;6.85;;;3.30;;
43837;SDS011;65998;46.256;7.534;2024-02-28T13:29:23;6.77;;;3.60;;
43837;SDS011;65998;46.256;7.534;2024-02-28T13:31:49;7.40;;;3.75;;
43837;SDS011;65998;46.256;7.534;2024-02-28T13:34:14;8.60;;;3.60;;
43837;SDS011;65998;46.256;7.534;2024-02-28T13:36:40;7.03;;;3.15;;
43837;SDS011;65998;46.256;7.534;2024-02-28T13:39:06;6.73;;;3.43;;
43837;SDS011;65998;46.256;7.534;2024-02-28T13:41:32;8.30;;;3.60;;
43837;SDS011;65998;46.256;7.534;2024-02-28T13:43:58;8.98;;;3.80;;
43837;SDS011;65998;46.256;7.534;2024-02-28T13:46:23;6.50;;;3.00;;
43837;SDS011;65998;46.256;7.534;2024-02-28T13:48:49;6.60;;;3.22;;
43837;SDS011;65998;46.256;7.534;2024-02-28T13:51:15;8.95;;;3.70;;
43837;SDS011;65998;46.256;7.534;2024-02-28T13:53:41;7.60;;;3.47;;
43837;SDS011;65998;46.256;7.534;2024-02-28T13:56:07;7.45;;;3.22;;
43837;SDS011;65998;46.256;7.534;2024-02-28T13:58:32;6.60;;;3.17;;
43837;SDS011;65998;46.256;7.534;2024-02-28T14:00:58;6.50;;;3.40;;
43837;SDS011;65998;46.256;7.534;2024-02-28T14:03:24;6.23;;;3.40;;
43837;SDS011;65998;46.256;7.534;2024-02-28T14:05:50;5.88;;;2.72;;
43837;SDS011;65998;46.256;7.534;2024-02-28T14:08:16;7.00;;;2.47;;
43837;SDS011;65998;46.256;7.534;2024-02-28T14:10:41;6.27;;;3.10;;
43837;SDS011;65998;46.256;7.534;2024-02-28T14:13:07;5.20;;;2.58;;
43837;SDS011;65998;46.256;7.534;2024-02-28T14:15:33;6.65;;;3.30;;
43837;SDS011;65998;46.256;7.534;2024-02-28T14:17:59;6.45;;;3.03;;
43837;SDS011;65998;46.256;7.534;2024-02-28T14:20:25;6.00;;;3.28;;
43837;SDS011;65998;46.256;7.534;2024-02-28T14:22:51;6.90;;;3.63;;
43837;SDS011;65998;46.256;7.534;2024-02-28T14:25:17;8.20;;;3.92;;
43837;SDS011;65998;46.256;7.534;2024-02-28T14:27:44;7.55;;;3.85;;
43837;SDS011;65998;46.256;7.534;2024-02-28T14:30:11;7.07;;;3.40;;
43837;SDS011;65998;46.256;7.534;2024-02-28T14:32:38;8.52;;;4.07;;
43837;SDS011;65998;46.256;7.534;2024-02-28T14:35:07;7.50;;;3.60;;
43837;SDS011;65998;46.256;7.534;2024-02-28T14:37:34;8.05;;;4.07;;